sensor_id;sensor_type;location;lat;lon;timestamp;pressure;altitude;pressure_sealevel;temperature;humidity
16525;BME280;8375;33.594;-117.718;2023-03-19T00:00:34;100246.44;;;23.72;24.70
16525;BME280;8375;33.594;-117.718;2023-03-19T00:03:03;100241.75;;;23.61;26.90
16525;BME280;8375;33.594;-117.718;2023-03-19T00:05:33;100239.50;;;23.57;24.79
16525;BME280;8375;33.594;-117.718;2023-03-19T00:08:02;100245.41;;;23.53;24.22
16525;BME280;8375;33.594;-117.718;2023-03-19T00:10:32;100240.50;;;23.50;25.76
16525;BME280;8375;33.594;-117.718;2023-03-19T00:13:01;100239.06;;;23.40;24.94
16525;BME280;8375;33.594;-117.718;2023-03-19T00:15:29;100243.34;;;23.35;26.92
16525;BME280;8375;33.594;-117.718;2023-03-19T00:17:58;100243.72;;;23.25;27.55
16525;BME280;8375;33.594;-117.718;2023-03-19T00:20:27;100247.38;;;23.17;26.95
16525;BME280;8375;33.594;-117.718;2023-03-19T00:22:57;100254.88;;;23.07;26.12
16525;BME280;8375;33.594;-117.718;2023-03-19T00:25:26;100249.72;;;22.92;25.38
16525;BME280;8375;33.594;-117.718;2023-03-19T00:27:55;100252.97;;;22.87;25.98
16525;BME280;8375;33.594;-117.718;2023-03-19T00:30:23;100249.88;;;22.77;26.76
16525;BME280;8375;33.594;-117.718;2023-03-19T00:32:52;100253.72;;;22.67;24.63
16525;BME280;8375;33.594;-117.718;2023-03-19T00:35:21;100248.97;;;22.56;23.91
16525;BME280;8375;33.594;-117.718;2023-03-19T00:37:49;100238.94;;;22.45;23.79
16525;BME280;8375;33.594;-117.718;2023-03-19T00:40:20;100247.81;;;22.37;26.72
16525;BME280;8375;33.594;-117.718;2023-03-19T00:42:48;100246.72;;;22.24;26.24
16525;BME280;8375;33.594;-117.718;2023-03-19T00:45:17;100246.94;;;22.23;27.39
16525;BME280;8375;33.594;-117.718;2023-03-19T00:47:46;100241.81;;;22.15;25.94
16525;BME280;8375;33.594;-117.718;2023-03-19T00:50:14;100238.47;;;22.06;26.12
16525;BME280;8375;33.594;-117.718;2023-03-19T00:52:43;100244.34;;;22.01;25.99
16525;BME280;8375;33.594;-117.718;2023-03-19T00:55:11;100237.81;;;21.97;29.60
16525;BME280;8375;33.594;-117.718;2023-03-19T00:57:42;100245.69;;;21.90;25.17
16525;BME280;8375;33.594;-117.718;2023-03-19T01:00:11;100241.78;;;21.86;28.81
16525;BME280;8375;33.594;-117.718;2023-03-19T01:02:40;100247.66;;;21.81;28.15
16525;BME280;8375;33.594;-117.718;2023-03-19T01:05:09;100253.09;;;21.73;28.43
16525;BME280;8375;33.594;-117.718;2023-03-19T01:07:38;100247.34;;;21.69;29.48
16525;BME280;8375;33.594;-117.718;2023-03-19T01:10:08;100252.94;;;21.60;28.80
16525;BME280;8375;33.594;-117.718;2023-03-19T01:12:37;100254.06;;;21.50;28.52
16525;BME280;8375;33.594;-117.718;2023-03-19T01:15:09;100248.91;;;21.42;30.21
16525;BME280;8375;33.594;-117.718;2023-03-19T01:17:37;100253.13;;;21.36;29.01
16525;BME280;8375;33.594;-117.718;2023-03-19T01:20:07;100251.44;;;21.29;28.57
16525;BME280;8375;33.594;-117.718;2023-03-19T01:22:38;100264.53;;;21.22;28.78
16525;BME280;8375;33.594;-117.718;2023-03-19T01:25:09;100269.56;;;21.17;30.64
16525;BME280;8375;33.594;-117.718;2023-03-19T01:27:38;100271.94;;;21.12;28.46
16525;BME280;8375;33.594;-117.718;2023-03-19T01:30:10;100273.69;;;21.04;29.13
16525;BME280;8375;33.594;-117.718;2023-03-19T01:32:39;100276.59;;;20.94;26.67
16525;BME280;8375;33.594;-117.718;2023-03-19T01:35:08;100270.06;;;20.90;30.89
16525;BME280;8375;33.594;-117.718;2023-03-19T01:37:37;100278.28;;;20.80;31.79
16525;BME280;8375;33.594;-117.718;2023-03-19T01:40:09;100281.34;;;20.69;30.00
16525;BME280;8375;33.594;-117.718;2023-03-19T01:42:52;100283.06;;;20.62;32.30
16525;BME280;8375;33.594;-117.718;2023-03-19T01:45:33;100280.78;;;20.44;30.72
16525;BME280;8375;33.594;-117.718;2023-03-19T01:48:03;100282.50;;;20.36;33.54
16525;BME280;8375;33.594;-117.718;2023-03-19T01:50:37;100278.94;;;20.29;35.68
16525;BME280;8375;33.594;-117.718;2023-03-19T01:53:07;100277.75;;;20.02;30.99
16525;BME280;8375;33.594;-117.718;2023-03-19T01:55:37;100279.72;;;20.00;33.45
16525;BME280;8375;33.594;-117.718;2023-03-19T01:58:07;100282.25;;;19.93;34.22
16525;BME280;8375;33.594;-117.718;2023-03-19T02:00:38;100284.44;;;19.89;36.50
16525;BME280;8375;33.594;-117.718;2023-03-19T02:03:08;100275.56;;;19.82;35.77
16525;BME280;8375;33.594;-117.718;2023-03-19T02:05:37;100272.81;;;19.75;37.13
16525;BME280;8375;33.594;-117.718;2023-03-19T02:08:09;100277.03;;;19.61;35.91
16525;BME280;8375;33.594;-117.718;2023-03-19T02:10:40;100269.66;;;19.57;38.93
16525;BME280;8375;33.594;-117.718;2023-03-19T02:13:09;100266.72;;;19.52;38.43
16525;BME280;8375;33.594;-117.718;2023-03-19T02:15:40;100262.06;;;19.39;36.69
16525;BME280;8375;33.594;-117.718;2023-03-19T02:18:09;100265.53;;;19.31;37.07
16525;BME280;8375;33.594;-117.718;2023-03-19T02:20:43;100273.13;;;19.26;39.71
16525;BME280;8375;33.594;-117.718;2023-03-19T02:23:22;100265.63;;;19.14;39.39
16525;BME280;8375;33.594;-117.718;2023-03-19T02:26:15;100267.50;;;19.05;37.81
16525;BME280;8375;33.594;-117.718;2023-03-19T02:28:47;100265.03;;;18.96;39.91
16525;BME280;8375;33.594;-117.718;2023-03-19T02:31:16;100276.91;;;18.91;42.44
16525;BME280;8375;33.594;-117.718;2023-03-19T02:33:56;100280.69;;;18.97;44.49
16525;BME280;8375;33.594;-117.718;2023-03-19T02:36:28;100272.28;;;18.94;43.60
16525;BME280;8375;33.594;-117.718;2023-03-19T02:39:02;100269.03;;;18.83;38.59
16525;BME280;8375;33.594;-117.718;2023-03-19T02:41:36;100269.06;;;18.75;39.16
16525;BME280;8375;33.594;-117.718;2023-03-19T02:44:08;100268.28;;;18.74;42.06
16525;BME280;8375;33.594;-117.718;2023-03-19T02:46:38;100262.72;;;18.61;38.31
16525;BME280;8375;33.594;-117.718;2023-03-19T02:49:07;100272.44;;;18.52;37.54
16525;BME280;8375;33.594;-117.718;2023-03-19T02:51:37;100274.41;;;18.50;42.25
16525;BME280;8375;33.594;-117.718;2023-03-19T02:54:06;100267.69;;;18.39;38.66
16525;BME280;8375;33.594;-117.718;2023-03-19T02:56:36;100268.19;;;18.35;39.56
16525;BME280;8375;33.594;-117.718;2023-03-19T02:59:05;100267.56;;;18.32;42.24
16525;BME280;8375;33.594;-117.718;2023-03-19T03:01:34;100275.91;;;18.28;44.48
16525;BME280;8375;33.594;-117.718;2023-03-19T03:04:03;100267.38;;;18.26;43.03
16525;BME280;8375;33.594;-117.718;2023-03-19T03:06:32;100274.28;;;18.18;41.95
16525;BME280;8375;33.594;-117.718;2023-03-19T03:09:01;100274.28;;;18.10;42.04
16525;BME280;8375;33.594;-117.718;2023-03-19T03:11:30;100268.56;;;18.07;43.00
16525;BME280;8375;33.594;-117.718;2023-03-19T03:14:01;100270.19;;;17.99;44.20
16525;BME280;8375;33.594;-117.718;2023-03-19T03:16:30;100277.88;;;17.84;43.08
16525;BME280;8375;33.594;-117.718;2023-03-19T03:18:59;100270.66;;;17.78;44.19
16525;BME280;8375;33.594;-117.718;2023-03-19T03:21:28;100274.78;;;17.81;45.54
16525;BME280;8375;33.594;-117.718;2023-03-19T03:23:57;100283.13;;;17.76;48.03
16525;BME280;8375;33.594;-117.718;2023-03-19T03:26:25;100271.50;;;17.70;43.99
16525;BME280;8375;33.594;-117.718;2023-03-19T03:28:54;100274.59;;;17.66;43.18
16525;BME280;8375;33.594;-117.718;2023-03-19T03:31:25;100268.03;;;17.62;42.75
16525;BME280;8375;33.594;-117.718;2023-03-19T03:33:53;100274.91;;;17.54;42.71
16525;BME280;8375;33.594;-117.718;2023-03-19T03:36:22;100281.31;;;17.52;44.75
16525;BME280;8375;33.594;-117.718;2023-03-19T03:38:51;100276.72;;;17.45;43.47
16525;BME280;8375;33.594;-117.718;2023-03-19T03:41:20;100274.88;;;17.38;45.61
16525;BME280;8375;33.594;-117.718;2023-03-19T03:43:48;100281.59;;;17.32;45.84
16525;BME280;8375;33.594;-117.718;2023-03-19T03:46:17;100290.78;;;17.28;47.24
16525;BME280;8375;33.594;-117.718;2023-03-19T03:48:47;100292.41;;;17.21;46.71
16525;BME280;8375;33.594;-117.718;2023-03-19T03:51:16;100298.09;;;17.16;45.21
16525;BME280;8375;33.594;-117.718;2023-03-19T03:53:45;100304.97;;;17.09;45.17
16525;BME280;8375;33.594;-117.718;2023-03-19T03:56:14;100301.84;;;17.05;46.11
16525;BME280;8375;33.594;-117.718;2023-03-19T03:58:43;100314.22;;;16.95;46.81
16525;BME280;8375;33.594;-117.718;2023-03-19T04:01:13;100309.97;;;16.94;46.93
16525;BME280;8375;33.594;-117.718;2023-03-19T04:03:42;100314.03;;;16.88;48.84
16525;BME280;8375;33.594;-117.718;2023-03-19T04:06:14;100302.72;;;16.88;48.32
16525;BME280;8375;33.594;-117.718;2023-03-19T04:08:44;100306.94;;;16.80;47.70
16525;BME280;8375;33.594;-117.718;2023-03-19T04:11:13;100307.41;;;16.76;48.11
16525;BME280;8375;33.594;-117.718;2023-03-19T04:13:42;100311.50;;;16.70;48.76
16525;BME280;8375;33.594;-117.718;2023-03-19T04:16:10;100324.69;;;16.60;49.95
16525;BME280;8375;33.594;-117.718;2023-03-19T04:18:39;100320.28;;;16.61;50.35
16525;BME280;8375;33.594;-117.718;2023-03-19T04:21:08;100320.91;;;16.54;51.39
16525;BME280;8375;33.594;-117.718;2023-03-19T04:23:38;100324.19;;;16.56;51.71
16525;BME280;8375;33.594;-117.718;2023-03-19T04:26:07;100321.88;;;16.53;52.00
16525;BME280;8375;33.594;-117.718;2023-03-19T04:28:35;100328.91;;;16.53;50.94
16525;BME280;8375;33.594;-117.718;2023-03-19T04:31:05;100324.50;;;16.53;48.73
16525;BME280;8375;33.594;-117.718;2023-03-19T04:33:35;100335.28;;;16.50;49.33
16525;BME280;8375;33.594;-117.718;2023-03-19T04:36:04;100330.66;;;16.44;50.82
16525;BME280;8375;33.594;-117.718;2023-03-19T04:38:33;100338.16;;;16.39;48.93
16525;BME280;8375;33.594;-117.718;2023-03-19T04:41:05;100330.44;;;16.37;48.22
16525;BME280;8375;33.594;-117.718;2023-03-19T04:43:33;100328.47;;;16.39;50.42
16525;BME280;8375;33.594;-117.718;2023-03-19T04:46:02;100321.59;;;16.38;51.01
16525;BME280;8375;33.594;-117.718;2023-03-19T04:48:32;100313.91;;;16.37;52.14
16525;BME280;8375;33.594;-117.718;2023-03-19T04:51:01;100326.63;;;16.32;51.95
16525;BME280;8375;33.594;-117.718;2023-03-19T04:53:30;100326.94;;;16.28;51.16
16525;BME280;8375;33.594;-117.718;2023-03-19T04:55:58;100328.34;;;16.23;53.03
16525;BME280;8375;33.594;-117.718;2023-03-19T04:58:29;100326.22;;;16.18;51.15
16525;BME280;8375;33.594;-117.718;2023-03-19T05:00:58;100315.66;;;16.10;51.25
16525;BME280;8375;33.594;-117.718;2023-03-19T05:03:27;100324.94;;;16.04;53.37
16525;BME280;8375;33.594;-117.718;2023-03-19T05:05:55;100318.22;;;16.02;52.52
16525;BME280;8375;33.594;-117.718;2023-03-19T05:08:24;100318.81;;;15.95;52.72
16525;BME280;8375;33.594;-117.718;2023-03-19T05:10:53;100324.19;;;15.94;53.04
16525;BME280;8375;33.594;-117.718;2023-03-19T05:13:21;100327.78;;;15.93;54.49
16525;BME280;8375;33.594;-117.718;2023-03-19T05:15:53;100325.03;;;15.94;55.85
16525;BME280;8375;33.594;-117.718;2023-03-19T05:18:22;100319.13;;;15.92;54.95
16525;BME280;8375;33.594;-117.718;2023-03-19T05:20:51;100303.69;;;15.89;53.88
16525;BME280;8375;33.594;-117.718;2023-03-19T05:23:21;100316.38;;;15.84;53.86
16525;BME280;8375;33.594;-117.718;2023-03-19T05:25:50;100315.31;;;15.77;54.48
16525;BME280;8375;33.594;-117.718;2023-03-19T05:28:19;100306.13;;;15.73;55.95
16525;BME280;8375;33.594;-117.718;2023-03-19T05:30:48;100310.38;;;15.74;57.04
16525;BME280;8375;33.594;-117.718;2023-03-19T05:33:18;100289.91;;;15.69;55.14
16525;BME280;8375;33.594;-117.718;2023-03-19T05:35:48;100288.88;;;15.62;56.24
16525;BME280;8375;33.594;-117.718;2023-03-19T05:38:17;100303.34;;;15.56;57.05
16525;BME280;8375;33.594;-117.718;2023-03-19T05:40:46;100306.81;;;15.57;55.97
16525;BME280;8375;33.594;-117.718;2023-03-19T05:43:15;100310.81;;;15.51;57.29
16525;BME280;8375;33.594;-117.718;2023-03-19T05:45:49;100303.44;;;15.46;58.13
16525;BME280;8375;33.594;-117.718;2023-03-19T05:48:20;100301.91;;;15.44;57.91
16525;BME280;8375;33.594;-117.718;2023-03-19T05:50:48;100310.91;;;15.41;57.31
16525;BME280;8375;33.594;-117.718;2023-03-19T05:53:18;100309.38;;;15.38;57.06
16525;BME280;8375;33.594;-117.718;2023-03-19T05:55:47;100308.03;;;15.34;57.62
16525;BME280;8375;33.594;-117.718;2023-03-19T05:58:15;100308.31;;;15.31;56.30
16525;BME280;8375;33.594;-117.718;2023-03-19T06:00:44;100307.50;;;15.31;57.21
16525;BME280;8375;33.594;-117.718;2023-03-19T06:03:14;100299.00;;;15.29;59.44
16525;BME280;8375;33.594;-117.718;2023-03-19T06:05:47;100301.22;;;15.23;58.16
16525;BME280;8375;33.594;-117.718;2023-03-19T06:08:16;100290.22;;;15.20;56.18
16525;BME280;8375;33.594;-117.718;2023-03-19T06:10:46;100289.69;;;15.16;56.39
16525;BME280;8375;33.594;-117.718;2023-03-19T06:13:14;100286.94;;;15.18;56.63
16525;BME280;8375;33.594;-117.718;2023-03-19T06:15:43;100287.22;;;15.15;58.21
16525;BME280;8375;33.594;-117.718;2023-03-19T06:18:12;100279.44;;;15.05;58.00
16525;BME280;8375;33.594;-117.718;2023-03-19T06:20:41;100272.00;;;15.00;58.46
16525;BME280;8375;33.594;-117.718;2023-03-19T06:23:12;100276.44;;;15.00;59.14
16525;BME280;8375;33.594;-117.718;2023-03-19T06:25:41;100271.78;;;14.93;58.87
16525;BME280;8375;33.594;-117.718;2023-03-19T06:28:10;100267.81;;;14.89;60.00
16525;BME280;8375;33.594;-117.718;2023-03-19T06:30:39;100268.41;;;14.83;60.67
16525;BME280;8375;33.594;-117.718;2023-03-19T06:33:08;100278.84;;;14.83;59.47
16525;BME280;8375;33.594;-117.718;2023-03-19T06:35:37;100282.84;;;14.77;59.25
16525;BME280;8375;33.594;-117.718;2023-03-19T06:38:06;100284.50;;;14.78;59.48
16525;BME280;8375;33.594;-117.718;2023-03-19T06:40:36;100281.66;;;14.72;60.05
16525;BME280;8375;33.594;-117.718;2023-03-19T06:43:05;100283.13;;;14.74;60.28
16525;BME280;8375;33.594;-117.718;2023-03-19T06:45:34;100288.50;;;14.73;59.61
16525;BME280;8375;33.594;-117.718;2023-03-19T06:48:03;100287.13;;;14.69;59.54
16525;BME280;8375;33.594;-117.718;2023-03-19T06:50:32;100303.88;;;14.66;59.53
16525;BME280;8375;33.594;-117.718;2023-03-19T06:53:01;100310.75;;;14.67;58.83
16525;BME280;8375;33.594;-117.718;2023-03-19T06:55:30;100305.81;;;14.64;60.18
16525;BME280;8375;33.594;-117.718;2023-03-19T06:58:00;100307.47;;;14.65;59.99
16525;BME280;8375;33.594;-117.718;2023-03-19T07:00:29;100298.94;;;14.63;60.36
16525;BME280;8375;33.594;-117.718;2023-03-19T07:02:58;100302.69;;;14.60;59.91
16525;BME280;8375;33.594;-117.718;2023-03-19T07:05:27;100303.66;;;14.59;60.48
16525;BME280;8375;33.594;-117.718;2023-03-19T07:07:56;100310.13;;;14.55;59.33
16525;BME280;8375;33.594;-117.718;2023-03-19T07:10:24;100312.72;;;14.55;59.89
16525;BME280;8375;33.594;-117.718;2023-03-19T07:12:53;100315.75;;;14.50;59.27
16525;BME280;8375;33.594;-117.718;2023-03-19T07:15:23;100317.41;;;14.51;61.32
16525;BME280;8375;33.594;-117.718;2023-03-19T07:17:52;100319.34;;;14.49;60.43
16525;BME280;8375;33.594;-117.718;2023-03-19T07:20:27;100312.47;;;14.48;59.78
16525;BME280;8375;33.594;-117.718;2023-03-19T07:22:56;100303.66;;;14.49;59.21
16525;BME280;8375;33.594;-117.718;2023-03-19T07:25:25;100310.13;;;14.45;60.31
16525;BME280;8375;33.594;-117.718;2023-03-19T07:27:54;100320.03;;;14.42;61.28
16525;BME280;8375;33.594;-117.718;2023-03-19T07:30:24;100314.94;;;14.40;62.68
16525;BME280;8375;33.594;-117.718;2023-03-19T07:32:54;100309.59;;;14.32;63.75
16525;BME280;8375;33.594;-117.718;2023-03-19T07:35:23;100305.91;;;14.25;62.65
16525;BME280;8375;33.594;-117.718;2023-03-19T07:37:52;100299.03;;;14.23;62.61
16525;BME280;8375;33.594;-117.718;2023-03-19T07:40:21;100293.81;;;14.23;63.25
16525;BME280;8375;33.594;-117.718;2023-03-19T07:42:50;100295.75;;;14.21;62.91
16525;BME280;8375;33.594;-117.718;2023-03-19T07:45:18;100296.16;;;14.17;63.70
16525;BME280;8375;33.594;-117.718;2023-03-19T07:47:50;100292.72;;;14.16;63.80
16525;BME280;8375;33.594;-117.718;2023-03-19T07:50:19;100296.56;;;14.12;63.81
16525;BME280;8375;33.594;-117.718;2023-03-19T07:52:48;100296.59;;;14.02;63.30
16525;BME280;8375;33.594;-117.718;2023-03-19T07:55:18;100302.22;;;13.98;63.96
16525;BME280;8375;33.594;-117.718;2023-03-19T07:57:47;100295.91;;;14.00;64.59
16525;BME280;8375;33.594;-117.718;2023-03-19T08:00:16;100297.28;;;13.94;66.11
16525;BME280;8375;33.594;-117.718;2023-03-19T08:02:45;100310.19;;;13.96;66.50
16525;BME280;8375;33.594;-117.718;2023-03-19T08:05:15;100303.72;;;13.90;67.21
16525;BME280;8375;33.594;-117.718;2023-03-19T08:07:44;100290.00;;;13.88;68.15
16525;BME280;8375;33.594;-117.718;2023-03-19T08:10:13;100297.13;;;13.86;68.54
16525;BME280;8375;33.594;-117.718;2023-03-19T08:12:43;100304.28;;;13.84;68.40
16525;BME280;8375;33.594;-117.718;2023-03-19T08:15:12;100302.34;;;13.86;69.60
16525;BME280;8375;33.594;-117.718;2023-03-19T08:17:40;100304.00;;;13.87;69.25
16525;BME280;8375;33.594;-117.718;2023-03-19T08:20:11;100312.09;;;13.84;69.60
16525;BME280;8375;33.594;-117.718;2023-03-19T08:22:44;100305.66;;;13.88;67.66
16525;BME280;8375;33.594;-117.718;2023-03-19T08:25:16;100306.59;;;13.87;66.01
16525;BME280;8375;33.594;-117.718;2023-03-19T08:27:45;100297.28;;;13.85;66.25
16525;BME280;8375;33.594;-117.718;2023-03-19T08:30:14;100310.88;;;13.78;67.58
16525;BME280;8375;33.594;-117.718;2023-03-19T08:32:43;100312.38;;;13.81;68.92
16525;BME280;8375;33.594;-117.718;2023-03-19T08:35:12;100319.50;;;13.79;69.00
16525;BME280;8375;33.594;-117.718;2023-03-19T08:37:42;100314.72;;;13.74;68.57
16525;BME280;8375;33.594;-117.718;2023-03-19T08:40:12;100307.00;;;13.73;68.09
16525;BME280;8375;33.594;-117.718;2023-03-19T08:42:40;100306.06;;;13.74;68.05
16525;BME280;8375;33.594;-117.718;2023-03-19T08:45:10;100301.38;;;13.68;69.39
16525;BME280;8375;33.594;-117.718;2023-03-19T08:47:40;100303.44;;;13.64;69.20
16525;BME280;8375;33.594;-117.718;2023-03-19T08:50:10;100296.16;;;13.58;69.37
16525;BME280;8375;33.594;-117.718;2023-03-19T08:52:39;100297.13;;;13.57;70.20
16525;BME280;8375;33.594;-117.718;2023-03-19T08:55:09;100291.06;;;13.56;71.68
16525;BME280;8375;33.594;-117.718;2023-03-19T08:57:38;100294.78;;;13.54;71.67
16525;BME280;8375;33.594;-117.718;2023-03-19T09:00:08;100310.56;;;13.52;71.44
16525;BME280;8375;33.594;-117.718;2023-03-19T09:02:37;100310.28;;;13.45;72.99
16525;BME280;8375;33.594;-117.718;2023-03-19T09:05:06;100321.78;;;13.43;74.32
16525;BME280;8375;33.594;-117.718;2023-03-19T09:07:35;100315.75;;;13.42;74.38
16525;BME280;8375;33.594;-117.718;2023-03-19T09:10:04;100319.19;;;13.43;75.15
16525;BME280;8375;33.594;-117.718;2023-03-19T09:12:34;100317.06;;;13.37;73.47
16525;BME280;8375;33.594;-117.718;2023-03-19T09:15:03;100323.25;;;13.35;72.80
16525;BME280;8375;33.594;-117.718;2023-03-19T09:17:33;100321.59;;;13.34;74.25
16525;BME280;8375;33.594;-117.718;2023-03-19T09:20:01;100319.94;;;13.33;73.83
16525;BME280;8375;33.594;-117.718;2023-03-19T09:22:31;100321.16;;;13.29;73.73
16525;BME280;8375;33.594;-117.718;2023-03-19T09:25:00;100320.09;;;13.32;75.23
16525;BME280;8375;33.594;-117.718;2023-03-19T09:27:29;100315.84;;;13.31;74.90
16525;BME280;8375;33.594;-117.718;2023-03-19T09:29:59;100316.22;;;13.26;74.95
16525;BME280;8375;33.594;-117.718;2023-03-19T09:32:28;100307.72;;;13.24;74.64
16525;BME280;8375;33.594;-117.718;2023-03-19T09:34:57;100310.31;;;13.24;75.52
16525;BME280;8375;33.594;-117.718;2023-03-19T09:37:25;100317.28;;;13.24;75.26
16525;BME280;8375;33.594;-117.718;2023-03-19T09:39:54;100308.53;;;13.25;75.83
16525;BME280;8375;33.594;-117.718;2023-03-19T09:42:33;100313.31;;;13.19;74.17
16525;BME280;8375;33.594;-117.718;2023-03-19T09:45:14;100319.88;;;13.14;73.48
16525;BME280;8375;33.594;-117.718;2023-03-19T09:47:45;100322.75;;;13.11;74.06
16525;BME280;8375;33.594;-117.718;2023-03-19T09:50:18;100320.25;;;13.09;74.68
16525;BME280;8375;33.594;-117.718;2023-03-19T09:52:50;100309.56;;;13.12;75.43
16525;BME280;8375;33.594;-117.718;2023-03-19T09:55:34;100313.56;;;13.16;76.56
16525;BME280;8375;33.594;-117.718;2023-03-19T09:58:12;100309.88;;;13.19;75.89
16525;BME280;8375;33.594;-117.718;2023-03-19T10:00:46;100319.47;;;13.18;77.42
16525;BME280;8375;33.594;-117.718;2023-03-19T10:03:32;100318.41;;;13.21;77.29
16525;BME280;8375;33.594;-117.718;2023-03-19T10:06:13;100313.84;;;13.13;76.78
16525;BME280;8375;33.594;-117.718;2023-03-19T10:08:56;100304.63;;;13.09;76.79
16525;BME280;8375;33.594;-117.718;2023-03-19T10:11:41;100305.47;;;13.10;77.88
16525;BME280;8375;33.594;-117.718;2023-03-19T10:14:26;100301.91;;;13.11;75.97
16525;BME280;8375;33.594;-117.718;2023-03-19T10:17:09;100302.97;;;13.08;75.05
16525;BME280;8375;33.594;-117.718;2023-03-19T10:19:46;100292.81;;;13.05;72.51
16525;BME280;8375;33.594;-117.718;2023-03-19T10:22:20;100278.41;;;13.01;71.48
16525;BME280;8375;33.594;-117.718;2023-03-19T10:24:53;100274.56;;;13.05;73.87
16525;BME280;8375;33.594;-117.718;2023-03-19T10:27:26;100273.34;;;13.09;75.92
16525;BME280;8375;33.594;-117.718;2023-03-19T10:29:55;100268.97;;;13.10;76.43
16525;BME280;8375;33.594;-117.718;2023-03-19T10:32:33;100259.63;;;13.07;74.09
16525;BME280;8375;33.594;-117.718;2023-03-19T10:35:08;100250.31;;;13.04;73.47
16525;BME280;8375;33.594;-117.718;2023-03-19T10:37:40;100244.00;;;12.97;72.67
16525;BME280;8375;33.594;-117.718;2023-03-19T10:40:16;100243.16;;;12.97;73.22
16525;BME280;8375;33.594;-117.718;2023-03-19T10:43:00;100227.66;;;13.05;77.07
16525;BME280;8375;33.594;-117.718;2023-03-19T10:45:31;100217.41;;;13.03;74.47
16525;BME280;8375;33.594;-117.718;2023-03-19T10:48:04;100208.88;;;13.01;73.99
16525;BME280;8375;33.594;-117.718;2023-03-19T10:50:35;100204.38;;;13.03;74.38
16525;BME280;8375;33.594;-117.718;2023-03-19T10:53:10;100189.97;;;12.99;75.48
16525;BME280;8375;33.594;-117.718;2023-03-19T10:55:53;100177.88;;;12.98;74.63
16525;BME280;8375;33.594;-117.718;2023-03-19T10:58:25;100164.97;;;12.97;75.42
16525;BME280;8375;33.594;-117.718;2023-03-19T11:00:56;100171.16;;;12.96;75.75
16525;BME280;8375;33.594;-117.718;2023-03-19T11:03:32;100179.13;;;12.94;74.46
16525;BME280;8375;33.594;-117.718;2023-03-19T11:06:16;100186.41;;;13.00;75.92
16525;BME280;8375;33.594;-117.718;2023-03-19T11:08:51;100184.59;;;13.01;75.26
16525;BME280;8375;33.594;-117.718;2023-03-19T11:11:43;100198.31;;;13.03;75.83
16525;BME280;8375;33.594;-117.718;2023-03-19T11:14:15;100191.59;;;13.00;75.61
16525;BME280;8375;33.594;-117.718;2023-03-19T11:16:55;100184.75;;;12.99;74.17
16525;BME280;8375;33.594;-117.718;2023-03-19T11:19:27;100188.31;;;12.98;73.77
16525;BME280;8375;33.594;-117.718;2023-03-19T11:22:11;100186.41;;;13.00;76.25
16525;BME280;8375;33.594;-117.718;2023-03-19T11:24:49;100175.13;;;13.00;71.88
16525;BME280;8375;33.594;-117.718;2023-03-19T11:27:18;100171.03;;;12.97;71.64
16525;BME280;8375;33.594;-117.718;2023-03-19T11:29:54;100177.88;;;12.98;74.00
16525;BME280;8375;33.594;-117.718;2023-03-19T11:32:48;100178.16;;;12.95;74.90
16525;BME280;8375;33.594;-117.718;2023-03-19T11:35:29;100171.00;;;12.87;73.47
16525;BME280;8375;33.594;-117.718;2023-03-19T11:38:01;100157.28;;;12.85;74.13
16525;BME280;8375;33.594;-117.718;2023-03-19T11:40:41;100170.44;;;12.84;77.52
16525;BME280;8375;33.594;-117.718;2023-03-19T11:43:43;100158.34;;;12.73;74.46
16525;BME280;8375;33.594;-117.718;2023-03-19T11:49:14;100147.94;;;12.73;78.12
16525;BME280;8375;33.594;-117.718;2023-03-19T11:51:49;100147.81;;;12.74;79.60
16525;BME280;8375;33.594;-117.718;2023-03-19T11:54:26;100145.16;;;12.65;77.83
16525;BME280;8375;33.594;-117.718;2023-03-19T11:57:03;100133.94;;;12.64;77.88
16525;BME280;8375;33.594;-117.718;2023-03-19T11:59:45;100115.28;;;12.59;76.47
16525;BME280;8375;33.594;-117.718;2023-03-19T12:05:31;100115.13;;;12.51;76.81
16525;BME280;8375;33.594;-117.718;2023-03-19T12:08:16;100097.31;;;12.56;76.56
16525;BME280;8375;33.594;-117.718;2023-03-19T12:10:56;100101.16;;;12.61;77.04
16525;BME280;8375;33.594;-117.718;2023-03-19T12:13:38;100094.34;;;12.70;77.82
16525;BME280;8375;33.594;-117.718;2023-03-19T12:16:19;100100.25;;;12.72;78.56
16525;BME280;8375;33.594;-117.718;2023-03-19T12:19:04;100129.03;;;12.81;76.57
16525;BME280;8375;33.594;-117.718;2023-03-19T12:21:44;100127.81;;;12.85;73.49
16525;BME280;8375;33.594;-117.718;2023-03-19T12:24:24;100124.94;;;12.88;71.31
16525;BME280;8375;33.594;-117.718;2023-03-19T12:27:03;100141.13;;;12.91;70.02
16525;BME280;8375;33.594;-117.718;2023-03-19T12:29:41;100139.34;;;12.92;68.87
16525;BME280;8375;33.594;-117.718;2023-03-19T12:32:21;100146.75;;;12.97;66.03
16525;BME280;8375;33.594;-117.718;2023-03-19T12:34:56;100154.84;;;13.03;70.15
16525;BME280;8375;33.594;-117.718;2023-03-19T12:37:29;100161.72;;;13.04;67.42
16525;BME280;8375;33.594;-117.718;2023-03-19T12:40:14;100169.94;;;13.10;68.61
16525;BME280;8375;33.594;-117.718;2023-03-19T12:42:49;100164.06;;;13.08;68.43
16525;BME280;8375;33.594;-117.718;2023-03-19T12:45:29;100156.63;;;13.03;65.07
16525;BME280;8375;33.594;-117.718;2023-03-19T12:48:03;100152.94;;;13.05;67.31
16525;BME280;8375;33.594;-117.718;2023-03-19T12:50:35;100151.13;;;13.06;69.89
16525;BME280;8375;33.594;-117.718;2023-03-19T12:53:07;100146.19;;;12.93;69.49
16525;BME280;8375;33.594;-117.718;2023-03-19T12:55:43;100135.91;;;12.82;69.05
16525;BME280;8375;33.594;-117.718;2023-03-19T12:58:19;100133.69;;;12.77;71.24